Time;durP1;ratioP1;P1;durP2;ratioP2;P2;SDS_P1;SDS_P2;PMS_P1;PMS_P2;Temp;Humidity;BMP_temperature;BMP_pressure;BME280_temperature;BME280_humidity;BME280_pressure;Samples;Min_cycle;Max_cycle;Signal;HPM_P1;HPM_P2
2024/05/04 00:01:36;;;;;;;2.70;2.30;;;10.10;99.90;;;;;;6544684;21;20284;-81
2024/05/04 00:04:05;;;;;;;4.37;2.37;;;10.00;99.90;;;;;;6581008;21;20226;-81
2024/05/04 00:06:33;;;;;;;2.70;2.50;;;9.90;99.90;;;;;;6579293;21;20257;-81
2024/05/04 00:09:01;;;;;;;7.00;2.70;;;9.90;99.90;;;;;;6579713;21;20226;-81
2024/05/04 00:11:33;;;;;;;2.90;2.10;;;9.80;99.90;;;;;;6581779;21;20215;-81
2024/05/04 00:14:01;;;;;;;3.30;2.13;;;9.70;99.90;;;;;;6583404;21;20215;-81
2024/05/04 00:16:30;;;;;;;4.07;2.67;;;9.60;99.90;;;;;;6583803;21;20265;-81
2024/05/04 00:18:58;;;;;;;4.90;2.30;;;9.60;99.90;;;;;;6581909;21;20261;-81
2024/05/04 00:21:27;;;;;;;3.33;2.30;;;9.50;99.90;;;;;;6581923;21;20242;-81
2024/05/04 00:23:55;;;;;;;3.00;2.43;;;9.50;99.90;;;;;;6584073;21;20215;-81
2024/05/04 00:26:24;;;;;;;3.93;2.33;;;9.40;99.90;;;;;;6581828;21;20269;-81
2024/05/04 00:28:55;;;;;;;4.17;2.37;;;9.40;99.90;;;;;;6584266;21;20318;-81
2024/05/04 00:31:23;;;;;;;3.30;2.70;;;9.40;99.90;;;;;;6584438;21;20262;-81
2024/05/04 00:33:52;;;;;;;2.63;2.30;;;9.40;99.90;;;;;;6583860;21;20265;-81
2024/05/04 00:36:21;;;;;;;4.80;2.63;;;9.40;99.90;;;;;;6584089;21;20215;-81
2024/05/04 00:38:49;;;;;;;6.00;2.77;;;9.30;99.90;;;;;;6581432;21;20227;-81
2024/05/04 00:41:18;;;;;;;4.43;2.70;;;9.30;99.90;;;;;;6583530;21;20265;-81
2024/05/04 00:43:46;;;;;;;3.30;3.00;;;9.40;99.90;;;;;;6583736;21;20216;-81
2024/05/04 00:46:17;;;;;;;3.07;2.77;;;9.40;99.90;;;;;;6581501;21;20227;-81
2024/05/04 00:48:46;;;;;;;3.53;2.90;;;9.30;99.90;;;;;;6581706;21;20234;-81
2024/05/04 00:51:16;;;;;;;4.93;2.87;;;9.30;99.90;;;;;;6581571;21;20226;-81
2024/05/04 00:53:45;;;;;;;3.07;2.70;;;9.30;99.90;;;;;;6581584;21;20270;-80
2024/05/04 00:56:18;;;;;;;3.53;2.97;;;9.30;99.90;;;;;;6581435;21;20238;-81
2024/05/04 00:58:48;;;;;;;3.40;2.70;;;9.30;99.90;;;;;;6583600;21;20219;-81
2024/05/04 01:01:19;;;;;;;4.60;3.00;;;9.30;99.90;;;;;;6581178;21;20285;-81
2024/05/04 01:03:48;;;;;;;3.40;2.60;;;9.20;99.90;;;;;;6583763;21;20253;-81
2024/05/04 01:06:16;;;;;;;3.07;2.67;;;9.30;99.90;;;;;;6581265;21;20262;-81
2024/05/04 01:08:45;;;;;;;5.93;3.10;;;9.30;99.90;;;;;;6583223;21;20215;-81
2024/05/04 01:11:13;;;;;;;3.40;2.80;;;9.20;99.90;;;;;;6583616;21;20215;-80
2024/05/04 01:13:46;;;;;;;2.97;2.60;;;9.20;99.90;;;;;;6581456;21;20231;-81
2024/05/04 01:16:15;;;;;;;2.67;2.47;;;9.10;99.90;;;;;;6581839;21;20362;-81
2024/05/04 01:18:46;;;;;;;4.47;2.80;;;9.00;99.90;;;;;;6583284;21;20219;-81
2024/05/04 01:21:15;;;;;;;2.97;2.70;;;9.00;99.90;;;;;;6583920;21;20278;-81
2024/05/04 01:23:51;;;;;;;5.27;3.17;;;8.90;99.90;;;;;;6581203;21;20265;-81
2024/05/04 01:26:20;;;;;;;3.20;2.90;;;9.10;99.90;;;;;;6581139;21;20264;-81
2024/05/04 01:28:49;;;;;;;3.10;2.80;;;9.10;99.90;;;;;;6583285;21;20258;-81
2024/05/04 01:31:20;;;;;;;3.27;2.83;;;9.10;99.90;;;;;;6581009;21;20261;-81
2024/05/04 01:33:48;;;;;;;3.43;3.13;;;9.10;99.90;;;;;;6583575;21;20274;-81
2024/05/04 01:36:17;;;;;;;3.10;2.90;;;9.10;99.90;;;;;;6583171;21;20215;-80
2024/05/04 01:38:48;;;;;;;7.03;3.37;;;9.00;99.90;;;;;;6583353;21;20219;-80
2024/05/04 01:41:19;;;;;;;3.57;3.27;;;8.90;99.90;;;;;;6581005;21;20227;-80
2024/05/04 01:43:48;;;;;;;3.73;3.43;;;8.80;99.90;;;;;;6583012;21;20249;-81
2024/05/04 01:46:19;;;;;;;7.03;3.67;;;8.80;99.90;;;;;;6583272;21;20267;-81
2024/05/04 01:48:48;;;;;;;5.30;3.67;;;8.80;99.90;;;;;;6583069;21;20262;-81
2024/05/04 01:51:17;;;;;;;5.27;3.87;;;8.70;99.90;;;;;;6583068;21;20218;-81
2024/05/04 01:53:48;;;;;;;3.83;3.43;;;8.70;99.90;;;;;;6581031;21;20223;-80
2024/05/04 01:56:17;;;;;;;4.67;3.03;;;8.70;99.90;;;;;;6580974;21;20242;-80
2024/05/04 01:58:46;;;;;;;4.10;2.67;;;8.60;99.90;;;;;;6583222;21;20261;-81
2024/05/04 02:01:17;;;;;;;5.87;3.30;;;8.50;99.90;;;;;;6555851;21;20280;-81
2024/05/04 02:03:46;;;;;;;3.47;3.17;;;8.50;99.90;;;;;;6485812;22;20232;-81
2024/05/04 02:06:15;;;;;;;2.70;2.50;;;8.50;99.90;;;;;;6485944;22;20231;-80
2024/05/04 02:08:44;;;;;;;7.20;2.90;;;8.50;99.90;;;;;;6530922;22;20215;-80
2024/05/04 02:11:15;;;;;;;4.07;2.90;;;8.70;99.90;;;;;;6530614;22;20220;-80
2024/05/04 02:13:44;;;;;;;3.83;2.70;;;8.60;99.90;;;;;;6530397;22;20321;-80
2024/05/04 02:16:12;;;;;;;4.13;2.87;;;8.50;99.90;;;;;;6530817;22;20267;-80
2024/05/04 02:18:41;;;;;;;2.77;2.57;;;8.40;99.90;;;;;;6530183;22;20212;-80
2024/05/04 02:21:09;;;;;;;4.23;2.37;;;8.30;99.90;;;;;;6485786;22;20232;-80
2024/05/04 02:23:38;;;;;;;2.70;2.50;;;8.20;99.90;;;;;;6530523;22;20216;-80
2024/05/04 02:26:04;;;;;;;3.17;2.43;;;8.10;99.90;;;;;;6530522;22;20216;-80
2024/05/04 02:28:35;;;;;;;2.67;2.47;;;8.00;99.90;;;;;;6485571;22;20228;-80
2024/05/04 02:31:04;;;;;;;2.70;2.50;;;8.00;99.90;;;;;;6485483;22;20266;-80
2024/05/04 02:33:32;;;;;;;2.43;2.20;;;7.90;99.90;;;;;;6485220;22;20262;-80
2024/05/04 02:36:01;;;;;;;2.87;2.67;;;7.90;99.90;;;;;;6485428;22;20232;-80
2024/05/04 02:38:29;;;;;;;2.87;2.57;;;7.90;99.90;;;;;;6529923;22;20267;-80
2024/05/04 02:40:58;;;;;;;3.70;2.93;;;8.00;99.90;;;;;;6530250;22;20261;-80
2024/05/04 02:43:26;;;;;;;4.17;2.93;;;7.90;99.90;;;;;;6485326;22;20232;-80
2024/05/04 02:45:57;;;;;;;4.00;3.20;;;7.90;99.90;;;;;;6530750;22;20216;-80
2024/05/04 02:48:26;;;;;;;5.13;3.07;;;7.90;99.90;;;;;;6484916;22;20224;-80
2024/05/04 02:50:55;;;;;;;4.67;2.63;;;7.90;99.90;;;;;;6530381;22;20216;-81
2024/05/04 02:53:23;;;;;;;2.70;2.50;;;7.90;99.90;;;;;;6529896;22;20271;-80
2024/05/04 02:55:51;;;;;;;3.30;2.17;;;7.90;99.90;;;;;;6484972;22;20244;-80
2024/05/04 02:58:20;;;;;;;3.23;2.50;;;7.90;99.90;;;;;;6485059;22;20232;-80
2024/05/04 03:00:48;;;;;;;2.20;2.00;;;7.80;99.90;;;;;;6510876;21;20242;-80
2024/05/04 03:03:20;;;;;;;2.77;2.30;;;7.80;99.90;;;;;;6582436;21;20215;-80
2024/05/04 03:05:48;;;;;;;2.17;1.97;;;7.80;99.90;;;;;;6582347;21;20248;-80
2024/05/04 03:08:17;;;;;;;2.07;1.97;;;7.80;99.90;;;;;;6580365;21;20231;-80
2024/05/04 03:10:45;;;;;;;2.70;2.20;;;7.90;99.90;;;;;;6582541;21;20258;-80
2024/05/04 03:13:14;;;;;;;2.17;2.00;;;7.90;99.90;;;;;;6580347;21;20231;-80
2024/05/04 03:15:42;;;;;;;2.50;2.30;;;7.70;99.90;;;;;;6580129;21;20268;-80
2024/05/04 03:18:11;;;;;;;2.40;2.20;;;7.70;99.90;;;;;;6582208;21;20215;-80
2024/05/04 03:20:42;;;;;;;2.60;2.40;;;7.70;99.90;;;;;;6581774;21;20324;-80
2024/05/04 03:23:11;;;;;;;2.77;2.57;;;7.60;99.90;;;;;;6582233;21;20218;-81
2024/05/04 03:25:39;;;;;;;2.70;2.50;;;7.60;99.90;;;;;;6581991;21;20264;-80
2024/05/04 03:28:08;;;;;;;2.63;2.43;;;7.60;99.90;;;;;;6581886;21;20265;-80
2024/05/04 03:30:36;;;;;;;2.60;2.40;;;7.70;99.90;;;;;;6582079;21;20215;-80
2024/05/04 03:33:05;;;;;;;2.60;2.40;;;7.70;99.90;;;;;;6581848;21;20218;-80
2024/05/04 03:35:33;;;;;;;2.60;2.40;;;7.70;99.90;;;;;;6580158;21;20319;-80
2024/05/04 03:38:05;;;;;;;2.50;2.30;;;7.60;99.90;;;;;;6579878;21;20230;-80
2024/05/04 03:40:33;;;;;;;2.60;2.40;;;7.60;99.90;;;;;;6582407;21;20218;-80
2024/05/04 03:43:01;;;;;;;2.50;2.30;;;7.70;99.90;;;;;;6581852;21;20219;-80
2024/05/04 03:45:30;;;;;;;2.03;1.93;;;7.60;99.90;;;;;;6582130;21;20216;-80
2024/05/04 03:47:58;;;;;;;2.53;2.33;;;7.70;99.90;;;;;;6580002;21;20277;-80
2024/05/04 03:50:27;;;;;;;2.70;2.50;;;7.70;99.90;;;;;;6582371;21;20230;-80
2024/05/04 03:52:55;;;;;;;2.97;2.67;;;7.70;99.90;;;;;;6582118;21;20230;-80
2024/05/04 03:55:27;;;;;;;2.73;2.53;;;7.70;99.90;;;;;;6582110;21;20265;-80
2024/05/04 03:57:55;;;;;;;3.97;2.60;;;7.70;99.90;;;;;;6584489;21;20274;-80
2024/05/04 04:00:24;;;;;;;2.40;2.20;;;7.60;99.90;;;;;;6575219;21;20228;-80
2024/05/04 04:02:52;;;;;;;2.33;1.77;;;7.80;99.90;;;;;;6486837;22;20228;-81
2024/05/04 04:05:21;;;;;;;2.53;2.13;;;7.60;99.90;;;;;;6531831;22;20219;-80
2024/05/04 04:07:49;;;;;;;1.93;1.83;;;7.80;99.90;;;;;;6531882;22;20266;-80
2024/05/04 04:10:18;;;;;;;2.43;2.23;;;7.90;99.90;;;;;;6486734;22;20228;-80
2024/05/04 04:12:49;;;;;;;2.80;2.60;;;7.90;99.90;;;;;;6487422;22;20232;-80
2024/05/04 04:15:17;;;;;;;2.70;2.50;;;8.00;99.90;;;;;;6486859;22;20311;-80
2024/05/04 04:17:47;;;;;;;2.70;2.50;;;7.80;99.90;;;;;;6487112;22;20231;-80
2024/05/04 04:20:16;;;;;;;2.40;1.90;;;7.70;99.90;;;;;;6486655;22;20231;-80
2024/05/04 04:22:44;;;;;;;5.23;2.00;;;7.50;99.90;;;;;;6531790;22;20224;-80
2024/05/04 04:25:13;;;;;;;2.10;2.00;;;7.30;99.90;;;;;;6486654;22;20268;-80
2024/05/04 04:27:41;;;;;;;6.30;3.00;;;7.30;99.90;;;;;;6486683;22;20232;-80
2024/05/04 04:30:12;;;;;;;60.33;4.53;;;7.50;99.90;;;;;;6531655;22;20216;-80
2024/05/04 04:32:41;;;;;;;50.03;5.33;;;7.50;99.90;;;;;;6531919;22;20216;-80
2024/05/04 04:35:09;;;;;;;60.33;5.60;;;7.60;99.90;;;;;;6486504;22;20224;-80
2024/05/04 04:37:38;;;;;;;40.10;4.10;;;7.70;99.90;;;;;;6531479;22;20255;-80
2024/05/04 04:40:07;;;;;;;121.67;6.13;;;7.80;99.90;;;;;;6486640;22;20224;-80
2024/05/04 04:42:36;;;;;;;88.27;5.30;;;7.70;99.90;;;;;;6486520;22;20227;-81
2024/05/04 04:45:04;;;;;;;29.10;4.23;;;7.90;99.90;;;;;;6486524;22;20259;-81
2024/05/04 04:47:35;;;;;;;36.50;4.03;;;7.90;99.90;;;;;;6531822;22;20220;-81
2024/05/04 04:50:04;;;;;;;13.77;3.70;;;8.10;99.90;;;;;;6486510;22;20232;-81
2024/05/04 04:52:33;;;;;;;22.57;4.00;;;8.20;99.90;;;;;;6531503;22;20216;-81
2024/05/04 04:55:01;;;;;;;30.67;3.40;;;8.30;99.90;;;;;;6531306;22;20216;-81
2024/05/04 04:57:29;;;;;;;9.53;3.80;;;8.40;99.90;;;;;;6486637;22;20228;-81
2024/05/04 04:59:58;;;;;;;19.83;4.53;;;8.50;99.90;;;;;;6531050;22;20224;-81
2024/05/04 05:02:26;;;;;;;14.80;3.73;;;8.50;99.90;;;;;;6531692;22;20263;-81
2024/05/04 05:04:58;;;;;;;10.60;3.60;;;8.50;99.90;;;;;;6531299;22;20259;-81
2024/05/04 05:07:26;;;;;;;6.63;3.40;;;8.50;99.90;;;;;;6531229;22;20267;-81
2024/05/04 05:09:55;;;;;;;16.10;4.63;;;8.50;99.90;;;;;;6486090;22;20275;-81
2024/05/04 05:12:24;;;;;;;31.47;4.60;;;8.50;99.90;;;;;;6486331;22;20249;-81
2024/05/04 05:14:53;;;;;;;115.13;11.90;;;8.50;99.90;;;;;;6531403;22;20220;-81
2024/05/04 05:17:21;;;;;;;62.97;7.70;;;8.50;99.90;;;;;;6486502;22;20235;-81
2024/05/04 05:19:50;;;;;;;95.20;9.67;;;8.50;99.90;;;;;;6486261;22;20274;-80
2024/05/04 05:22:22;;;;;;;30.93;5.10;;;8.40;99.90;;;;;;6531082;22;20251;-81
2024/05/04 05:24:50;;;;;;;103.20;9.13;;;8.30;99.90;;;;;;6486427;22;20279;-81
2024/05/04 05:27:19;;;;;;;124.27;8.40;;;8.40;99.90;;;;;;6530972;22;20267;-80
2024/05/04 05:29:47;;;;;;;29.27;5.10;;;8.40;99.90;;;;;;6531218;22;20263;-81
2024/05/04 05:32:16;;;;;;;64.60;6.20;;;8.40;99.90;;;;;;6530792;22;20262;-81
2024/05/04 05:34:44;;;;;;;32.47;4.47;;;8.50;99.90;;;;;;6485700;22;20232;-81
2024/05/04 05:37:13;;;;;;;63.73;6.73;;;8.70;99.90;;;;;;6530913;22;20266;-80
2024/05/04 05:39:44;;;;;;;103.30;7.83;;;8.70;99.90;;;;;;6485984;22;20224;-81
2024/05/04 05:42:16;;;;;;;121.33;9.03;;;9.00;99.90;;;;;;6530544;22;20266;-81
2024/05/04 05:44:45;;;;;;;32.83;3.80;;;9.00;99.90;;;;;;6531512;22;20267;-81
2024/05/04 05:47:13;;;;;;;57.70;4.83;;;9.00;99.90;;;;;;6485809;22;20232;-81
2024/05/04 05:49:42;;;;;;;53.97;5.40;;;9.00;99.90;;;;;;6530828;22;20216;-81
2024/05/04 05:52:10;;;;;;;29.23;5.07;;;9.20;99.90;;;;;;6485887;22;20268;-81
2024/05/04 05:54:39;;;;;;;29.00;4.07;;;9.30;99.90;;;;;;6486026;22;20236;-81
2024/05/04 05:57:10;;;;;;;47.30;4.13;;;9.50;99.90;;;;;;6485885;22;20286;-81
2024/05/04 05:59:38;;;;;;;29.57;3.10;;;9.20;99.90;;;;;;6486443;22;20231;-80
2024/05/04 06:02:07;;;;;;;59.53;4.70;;;9.10;99.90;;;;;;6570386;21;20239;-80
2024/05/04 06:04:36;;;;;;;30.07;3.60;;;9.30;99.90;;;;;;6583553;21;20219;-81
2024/05/04 06:07:04;;;;;;;36.53;4.17;;;9.50;99.90;;;;;;6580410;21;20227;-81
2024/05/04 06:09:33;;;;;;;100.40;5.53;;;9.60;99.90;;;;;;6580574;21;20234;-81
2024/05/04 06:12:02;;;;;;;25.27;3.50;;;9.60;99.90;;;;;;6582771;21;20222;-81
2024/05/04 06:14:33;;;;;;;36.90;4.17;;;9.70;99.90;;;;;;6580818;21;20227;-81
2024/05/04 06:17:01;;;;;;;51.23;4.50;;;9.80;99.90;;;;;;6583565;21;20215;-81
2024/05/04 06:19:30;;;;;;;19.83;3.50;;;9.80;99.90;;;;;;6582547;21;20311;-81
2024/05/04 06:21:58;;;;;;;20.03;3.73;;;9.90;99.90;;;;;;6582263;21;20262;-81
2024/05/04 06:24:27;;;;;;;43.23;4.60;;;9.90;99.90;;;;;;6580746;21;20223;-81
2024/05/04 06:26:55;;;;;;;15.03;3.73;;;9.80;99.90;;;;;;6582422;21;20215;-81
2024/05/04 06:29:24;;;;;;;12.03;3.70;;;10.10;99.90;;;;;;6580469;21;20353;-81
2024/05/04 06:31:55;;;;;;;5.00;3.40;;;10.10;99.90;;;;;;6580518;21;20238;-81
2024/05/04 06:34:24;;;;;;;5.27;2.90;;;10.20;99.90;;;;;;6583141;21;20323;-81
2024/05/04 06:36:52;;;;;;;2.70;2.50;;;10.50;99.90;;;;;;6579832;21;20230;-81
2024/05/04 06:39:21;;;;;;;2.50;2.30;;;10.90;99.90;;;;;;6582246;21;20215;-81
2024/05/04 06:41:49;;;;;;;2.37;2.17;;;10.90;99.90;;;;;;6579922;21;20261;-81
2024/05/04 06:44:18;;;;;;;2.80;2.33;;;11.10;99.90;;;;;;6582883;21;20386;-81
2024/05/04 06:46:46;;;;;;;2.27;2.07;;;11.30;99.90;;;;;;6582666;21;20270;-81
2024/05/04 06:49:18;;;;;;;2.77;2.20;;;11.30;99.90;;;;;;6582639;21;20222;-81
2024/05/04 06:51:46;;;;;;;2.47;2.20;;;11.60;99.90;;;;;;6580556;21;20266;-81
2024/05/04 06:54:15;;;;;;;2.30;1.80;;;11.90;99.90;;;;;;6580268;21;20324;-81
2024/05/04 06:56:44;;;;;;;2.00;1.90;;;12.00;99.90;;;;;;6580341;21;20242;-81
2024/05/04 06:59:12;;;;;;;2.00;1.70;;;12.30;99.90;;;;;;6582310;21;20222;-81
2024/05/04 07:01:43;;;;;;;3.83;1.60;;;12.70;99.90;;;;;;6579554;21;20285;-81
2024/05/04 07:04:13;;;;;;;2.67;1.70;;;12.90;99.90;;;;;;6582483;21;20219;-81
2024/05/04 07:06:45;;;;;;;2.57;1.50;;;13.00;99.90;;;;;;6582191;21;20218;-81
2024/05/04 07:09:13;;;;;;;3.00;1.50;;;12.90;99.90;;;;;;6581988;21;20278;-82
2024/05/04 07:11:42;;;;;;;1.97;1.37;;;12.70;99.90;;;;;;6579845;21;20230;-82
2024/05/04 07:14:10;;;;;;;2.20;1.30;;;13.10;99.90;;;;;;6580028;21;20227;-81
2024/05/04 07:16:41;;;;;;;1.77;1.33;;;13.30;99.90;;;;;;6580023;21;20269;-81
2024/05/04 07:19:10;;;;;;;2.20;1.40;;;13.50;99.90;;;;;;6580049;21;20327;-81
2024/05/04 07:21:39;;;;;;;2.13;1.50;;;13.60;99.90;;;;;;6579731;21;20226;-81
2024/05/04 07:24:10;;;;;;;2.50;1.47;;;13.70;99.90;;;;;;6579572;21;20227;-81
2024/05/04 07:26:42;;;;;;;2.80;1.40;;;14.00;99.90;;;;;;6580286;21;20231;-81
2024/05/04 07:29:11;;;;;;;3.47;1.47;;;14.40;99.90;;;;;;6580030;21;20266;-81
2024/05/04 07:31:39;;;;;;;1.83;1.40;;;14.60;99.90;;;;;;6580228;21;20231;-82
2024/05/04 07:34:08;;;;;;;1.60;1.20;;;14.80;99.90;;;;;;6580209;21;20274;-82
2024/05/04 07:36:36;;;;;;;1.90;1.37;;;14.60;99.90;;;;;;6579566;21;20227;-82
2024/05/04 07:39:05;;;;;;;1.20;1.10;;;15.10;99.90;;;;;;6581895;21;20222;-81
2024/05/04 07:41:36;;;;;;;2.80;1.40;;;15.00;99.90;;;;;;6579962;21;20274;-81
2024/05/04 07:44:10;;;;;;;2.10;1.47;;;14.90;99.90;;;;;;6580210;21;20231;-81
2024/05/04 07:46:39;;;;;;;4.20;1.50;;;15.10;99.90;;;;;;6580085;21;20273;-81
2024/05/04 07:49:07;;;;;;;4.53;1.57;;;15.30;99.90;;;;;;6579823;21;20241;-81
2024/05/04 07:51:35;;;;;;;1.67;1.50;;;15.60;99.90;;;;;;6581944;21;20264;-82
2024/05/04 07:54:04;;;;;;;1.77;1.23;;;15.70;99.90;;;;;;6580035;21;20315;-81
2024/05/04 07:56:35;;;;;;;1.77;1.30;;;15.50;99.90;;;;;;6581967;21;20277;-81
2024/05/04 07:59:04;;;;;;;2.23;1.07;;;15.50;99.90;;;;;;6579801;21;20227;-82
2024/05/04 08:01:32;;;;;;;1.80;1.10;;;16.20;99.90;;;;;;6579347;21;20280;-82
2024/05/04 08:04:00;;;;;;;2.57;1.10;;;17.00;99.90;;;;;;6582325;21;20261;-82
2024/05/04 08:06:33;;;;;;;1.07;0.93;;;17.30;99.90;;;;;;6579632;21;20233;-82
2024/05/04 08:09:01;;;;;;;3.23;0.97;;;17.60;99.90;;;;;;6581892;21;20219;-82
2024/05/04 08:11:29;;;;;;;2.00;1.17;;;17.30;99.90;;;;;;6581973;21;20254;-81
2024/05/04 08:14:01;;;;;;;1.10;1.00;;;17.50;99.90;;;;;;6579054;21;20227;-82
2024/05/04 08:16:29;;;;;;;2.23;0.93;;;17.20;99.90;;;;;;6581980;21;20265;-81
2024/05/04 08:19:02;;;;;;;2.27;1.07;;;16.90;99.90;;;;;;6579639;21;20230;-81
2024/05/04 08:21:31;;;;;;;1.40;1.03;;;16.30;99.90;;;;;;6579942;21;20316;-81
2024/05/04 08:23:59;;;;;;;2.83;1.20;;;16.30;99.90;;;;;;6580034;21;20353;-82
2024/05/04 08:26:28;;;;;;;2.60;1.10;;;16.30;99.90;;;;;;6581826;21;20215;-81
2024/05/04 08:28:58;;;;;;;2.83;1.20;;;16.20;99.90;;;;;;6581807;21;20262;-81
2024/05/04 08:31:29;;;;;;;1.33;1.23;;;16.00;99.90;;;;;;6582315;21;20215;-82
2024/05/04 08:33:58;;;;;;;1.10;1.00;;;16.00;99.90;;;;;;6582136;21;20215;-82
2024/05/04 08:36:26;;;;;;;1.23;1.07;;;16.00;99.90;;;;;;6584268;21;20215;-82
2024/05/04 08:38:55;;;;;;;2.93;1.17;;;16.00;99.90;;;;;;6583865;21;20215;-82
2024/05/04 08:41:32;;;;;;;1.73;1.20;;;16.00;99.90;;;;;;6583582;21;20215;-82
2024/05/04 08:44:01;;;;;;;1.33;1.10;;;16.30;99.90;;;;;;6581967;21;20277;-82
2024/05/04 08:46:32;;;;;;;2.07;1.03;;;16.00;99.90;;;;;;6583925;21;20266;-82
2024/05/04 08:49:02;;;;;;;3.50;1.00;;;15.90;99.90;;;;;;6584220;21;20262;-82
2024/05/04 08:51:35;;;;;;;2.57;1.10;;;15.70;99.90;;;;;;6583543;21;20270;-82
2024/05/04 08:54:03;;;;;;;2.20;1.17;;;15.90;99.90;;;;;;6583858;21;20219;-82
2024/05/04 08:56:35;;;;;;;1.43;1.00;;;16.00;99.90;;;;;;6581524;21;20238;-82
2024/05/04 08:59:05;;;;;;;2.50;1.07;;;15.80;99.90;;;;;;6581429;21;20317;-82
2024/05/04 09:01:38;;;;;;;1.73;1.10;;;15.90;99.90;;;;;;6550205;21;20355;-81
2024/05/04 09:04:07;;;;;;;2.20;1.20;;;15.90;99.90;;;;;;6486193;22;20247;-82
2024/05/04 09:06:36;;;;;;;3.93;1.10;;;15.50;99.90;;;;;;6531192;22;20221;-82
2024/05/04 09:09:05;;;;;;;1.50;1.00;;;15.80;99.90;;;;;;6531275;22;20216;-82
2024/05/04 09:11:34;;;;;;;1.70;0.90;;;16.00;99.90;;;;;;6531424;22;20215;-82
2024/05/04 09:14:02;;;;;;;2.20;1.03;;;16.00;99.90;;;;;;6531273;22;20267;-82
2024/05/04 09:16:31;;;;;;;1.43;1.00;;;16.20;99.90;;;;;;6530138;22;20268;-83
2024/05/04 09:19:02;;;;;;;1.67;0.80;;;16.20;99.90;;;;;;6531562;22;20216;-82
2024/05/04 09:21:30;;;;;;;1.20;0.70;;;16.60;99.90;;;;;;6531343;22;20215;-82
2024/05/04 09:23:59;;;;;;;2.73;1.03;;;16.50;99.90;;;;;;6531087;22;20216;-82
2024/05/04 09:26:28;;;;;;;4.03;0.80;;;16.40;99.90;;;;;;6531119;22;20258;-81
2024/05/04 09:28:57;;;;;;;1.37;0.80;;;16.40;99.90;;;;;;6484139;22;20227;-81
2024/05/04 09:31:27;;;;;;;1.03;0.83;;;16.20;99.90;;;;;;6486503;22;20251;-81
2024/05/04 09:33:57;;;;;;;2.63;0.80;;;16.10;99.90;;;;;;6485994;22;20279;-81
2024/05/04 09:36:29;;;;;;;1.60;1.00;;;15.90;99.90;;;;;;6486065;22;20307;-81
2024/05/04 09:38:59;;;;;;;0.77;0.67;;;15.90;99.90;;;;;;6486200;22;20224;-81
2024/05/04 09:41:29;;;;;;;1.57;0.67;;;15.50;99.90;;;;;;6531117;22;20294;-81
2024/05/04 09:44:00;;;;;;;1.30;0.60;;;15.10;99.90;;;;;;6531139;22;20263;-81
2024/05/04 09:46:29;;;;;;;1.17;0.80;;;15.30;99.90;;;;;;6485929;22;20270;-82
2024/05/04 09:48:59;;;;;;;1.00;0.70;;;15.40;99.90;;;;;;6486311;22;20290;-81
2024/05/04 09:51:31;;;;;;;1.00;0.60;;;15.30;99.90;;;;;;6485838;22;20250;-82
2024/05/04 09:54:00;;;;;;;1.63;0.73;;;15.50;99.90;;;;;;6530757;22;20331;-85
2024/05/04 09:56:33;;;;;;;1.03;0.67;;;15.70;99.90;;;;;;6531093;22;20223;-81
2024/05/04 09:59:04;;;;;;;0.83;0.60;;;16.00;99.90;;;;;;6530841;22;20263;-84
2024/05/04 10:01:34;;;;;;;1.70;0.70;;;16.20;99.90;;;;;;6530848;21;20271;-85
2024/05/04 10:04:12;;;;;;;2.90;0.63;;;16.30;99.90;;;;;;6485888;22;20243;-86
2024/05/04 10:06:44;;;;;;;1.37;0.90;;;16.10;99.90;;;;;;6531269;22;20262;-81
2024/05/04 10:09:13;;;;;;;1.20;0.60;;;16.40;99.90;;;;;;6530972;22;20279;-81
2024/05/04 10:11:42;;;;;;;2.50;0.70;;;16.30;99.90;;;;;;6528662;22;20259;-82
2024/05/04 10:14:17;;;;;;;0.90;0.70;;;16.00;99.90;;;;;;6485436;22;20227;-81
2024/05/04 10:16:47;;;;;;;1.87;0.70;;;16.30;99.90;;;;;;6485683;22;20262;-81
2024/05/04 10:19:20;;;;;;;1.67;0.83;;;16.10;99.90;;;;;;6485510;22;20243;-82
2024/05/04 10:21:53;;;;;;;1.40;0.77;;;16.20;99.90;;;;;;6530455;22;20224;-82
2024/05/04 10:24:29;;;;;;;1.60;0.70;;;16.20;99.90;;;;;;6485297;22;20231;-83
2024/05/04 10:26:57;;;;;;;3.50;0.87;;;15.90;99.90;;;;;;6485637;22;20298;-83
2024/05/04 10:29:27;;;;;;;3.50;0.87;;;16.00;99.90;;;;;;6530347;22;20216;-82
2024/05/04 10:31:56;;;;;;;2.87;1.00;;;16.00;99.90;;;;;;6530260;22;20220;-81
2024/05/04 10:34:25;;;;;;;1.10;0.60;;;15.90;99.90;;;;;;6530176;22;20220;-81
2024/05/04 10:36:58;;;;;;;0.80;0.70;;;15.70;99.90;;;;;;6484733;22;20240;-81
2024/05/04 10:39:35;;;;;;;1.27;0.60;;;15.70;99.90;;;;;;6485492;22;20322;-82
2024/05/04 10:42:04;;;;;;;1.70;0.60;;;15.90;99.90;;;;;;6530059;22;20216;-81
2024/05/04 10:44:35;;;;;;;2.93;0.87;;;16.00;99.90;;;;;;6529125;22;20216;-81
2024/05/04 10:47:04;;;;;;;3.77;1.03;;;16.00;99.90;;;;;;6484924;22;20227;-82
2024/05/04 10:49:34;;;;;;;2.37;0.87;;;16.00;99.90;;;;;;6532331;22;20271;-82
2024/05/04 10:52:06;;;;;;;1.90;0.80;;;16.10;99.90;;;;;;6529450;22;20351;-82
2024/05/04 10:54:37;;;;;;;2.40;0.93;;;16.30;99.90;;;;;;6531273;22;20216;-82
2024/05/04 10:57:06;;;;;;;1.13;0.70;;;16.40;99.90;;;;;;6485825;22;20244;-82
2024/05/04 10:59:39;;;;;;;1.67;0.90;;;16.40;99.90;;;;;;6485465;22;20228;-82
2024/05/04 11:02:08;;;;;;;1.43;0.70;;;16.30;99.90;;;;;;6530452;21;20283;-81
2024/05/04 11:04:37;;;;;;;3.90;0.80;;;16.10;99.90;;;;;;6530893;22;20220;-82
2024/05/04 11:07:08;;;;;;;1.73;0.77;;;16.20;99.90;;;;;;6530880;22;20320;-83
2024/05/04 11:09:37;;;;;;;1.77;0.70;;;16.30;99.90;;;;;;6485717;22;20232;-81
2024/05/04 11:12:06;;;;;;;1.97;0.70;;;16.40;99.90;;;;;;6485758;22;20227;-81
2024/05/04 11:14:37;;;;;;;1.30;0.80;;;16.40;99.90;;;;;;6485740;22;20232;-81
2024/05/04 11:17:05;;;;;;;1.03;0.90;;;16.40;99.90;;;;;;6485516;22;20275;-81
2024/05/04 11:19:34;;;;;;;1.50;0.97;;;16.40;99.90;;;;;;6530770;22;20215;-80
2024/05/04 11:22:03;;;;;;;2.60;1.07;;;16.40;99.90;;;;;;6485566;22;20263;-82
2024/05/04 11:24:38;;;;;;;2.17;1.13;;;16.70;99.90;;;;;;6485608;22;20243;-83
2024/05/04 11:27:07;;;;;;;1.60;0.70;;;16.60;99.90;;;;;;6485514;22;20325;-85
2024/05/04 11:29:35;;;;;;;4.47;1.00;;;16.50;99.90;;;;;;6530269;22;20251;-82
2024/05/04 11:32:04;;;;;;;1.33;0.70;;;16.60;99.90;;;;;;6530711;22;20314;-82
2024/05/04 11:34:32;;;;;;;1.13;0.70;;;16.50;99.90;;;;;;6530540;22;20224;-81
2024/05/04 11:37:01;;;;;;;1.53;0.60;;;16.30;99.90;;;;;;6485602;22;20267;-81
2024/05/04 11:39:27;;;;;;;2.20;0.80;;;16.30;99.90;;;;;;6530511;22;20258;-81
2024/05/04 11:41:58;;;;;;;2.17;0.90;;;16.30;99.90;;;;;;6530191;22;20219;-81
2024/05/04 11:44:26;;;;;;;1.50;0.80;;;16.40;99.90;;;;;;6485312;22;20232;-81
2024/05/04 11:46:55;;;;;;;2.17;0.93;;;16.30;99.90;;;;;;6530473;22;20268;-81
2024/05/04 11:49:23;;;;;;;2.90;0.77;;;16.40;99.90;;;;;;6485088;22;20259;-81
2024/05/04 11:51:52;;;;;;;0.90;0.70;;;16.50;99.90;;;;;;6530218;22;20216;-81
2024/05/04 11:54:21;;;;;;;1.50;0.80;;;16.70;99.90;;;;;;6484914;22;20234;-81
2024/05/04 11:56:49;;;;;;;2.27;0.80;;;17.00;99.90;;;;;;6529881;22;20228;-81
2024/05/04 11:59:20;;;;;;;1.50;0.90;;;16.90;99.90;;;;;;6530989;22;20270;-81
2024/05/04 12:01:49;;;;;;;1.47;0.70;;;17.10;99.90;;;;;;6553141;21;20242;-81
2024/05/04 12:04:17;;;;;;;1.67;0.80;;;17.40;99.90;;;;;;6580580;21;20222;-81
2024/05/04 12:06:46;;;;;;;3.53;1.07;;;17.50;99.90;;;;;;6580092;21;20272;-81
2024/05/04 12:09:15;;;;;;;1.77;0.73;;;17.50;99.90;;;;;;6582292;21;20214;-82
2024/05/04 12:11:46;;;;;;;1.63;0.93;;;17.50;99.90;;;;;;6582489;21;20249;-84
2024/05/04 12:14:14;;;;;;;0.90;0.77;;;17.50;99.90;;;;;;6583899;21;20230;-85
2024/05/04 12:16:46;;;;;;;2.77;0.90;;;18.30;99.90;;;;;;6583916;21;20227;-85
2024/05/04 12:19:14;;;;;;;1.80;0.90;;;18.50;99.90;;;;;;6585978;21;20219;-83
2024/05/04 12:21:43;;;;;;;2.93;0.90;;;18.70;99.90;;;;;;6582700;21;20311;-83
2024/05/04 12:24:11;;;;;;;1.67;0.80;;;18.90;99.90;;;;;;6584513;21;20214;-82
2024/05/04 12:26:40;;;;;;;1.93;0.97;;;18.80;99.90;;;;;;6582434;21;20226;-82
2024/05/04 12:29:08;;;;;;;1.50;0.90;;;18.80;99.90;;;;;;6584573;21;20215;-82
2024/05/04 12:31:37;;;;;;;1.13;0.77;;;18.30;99.90;;;;;;6582450;21;20257;-81
2024/05/04 12:34:08;;;;;;;2.40;1.10;;;18.00;99.90;;;;;;6581674;21;20222;-82
2024/05/04 12:36:37;;;;;;;5.47;0.90;;;17.90;99.90;;;;;;6584049;21;20346;-81
2024/05/04 12:39:05;;;;;;;2.23;0.90;;;17.50;99.90;;;;;;6583791;21;20324;-81
2024/05/04 12:41:35;;;;;;;1.97;1.00;;;17.40;99.90;;;;;;6581823;21;20230;-81
2024/05/04 12:44:04;;;;;;;1.83;0.80;;;17.10;99.90;;;;;;6584170;21;20219;-81
2024/05/04 12:46:32;;;;;;;4.10;0.80;;;16.80;99.90;;;;;;6583519;21;20218;-81
2024/05/04 12:49:01;;;;;;;2.20;0.90;;;16.50;99.90;;;;;;6583800;21;20215;-81
2024/05/04 12:51:32;;;;;;;2.83;0.90;;;16.40;99.90;;;;;;6583642;21;20261;-81
2024/05/04 12:54:01;;;;;;;3.77;1.07;;;16.70;99.90;;;;;;6581404;21;20223;-81
2024/05/04 12:56:29;;;;;;;2.43;0.97;;;16.80;99.90;;;;;;6583385;21;20227;-81
2024/05/04 12:58:58;;;;;;;3.13;0.90;;;17.20;99.90;;;;;;6581168;21;20257;-81
2024/05/04 13:01:27;;;;;;;1.33;0.90;;;17.90;99.90;;;;;;6552630;21;20228;-81